sensor_id;sensor_type;location;lat;lon;timestamp;pressure;altitude;pressure_sealevel;temperature;humidity
3294;BME280;1659;51.470;6.770;2023-10-09T00:01:02;101842.00;;;14.55;94.88
3294;BME280;1659;51.470;6.770;2023-10-09T00:03:30;101857.03;;;14.58;94.72
3294;BME280;1659;51.470;6.770;2023-10-09T00:05:57;101856.09;;;14.62;94.86
3294;BME280;1659;51.470;6.770;2023-10-09T00:08:24;101848.13;;;14.62;94.63
3294;BME280;1659;51.470;6.770;2023-10-09T00:10:56;101848.06;;;14.65;94.59
3294;BME280;1659;51.470;6.770;2023-10-09T00:13:25;101846.22;;;14.68;94.88
3294;BME280;1659;51.470;6.770;2023-10-09T00:15:56;101844.41;;;14.70;94.88
3294;BME280;1659;51.470;6.770;2023-10-09T00:18:27;101849.66;;;14.75;94.69
3294;BME280;1659;51.470;6.770;2023-10-09T00:20:59;101852.22;;;14.80;94.74
3294;BME280;1659;51.470;6.770;2023-10-09T00:23:36;101845.94;;;14.84;94.94
3294;BME280;1659;51.470;6.770;2023-10-09T00:26:03;101840.59;;;14.85;94.88
3294;BME280;1659;51.470;6.770;2023-10-09T00:28:36;101833.44;;;14.87;95.08
3294;BME280;1659;51.470;6.770;2023-10-09T00:31:03;101830.75;;;14.90;95.22
3294;BME280;1659;51.470;6.770;2023-10-09T00:33:34;101821.81;;;14.93;95.40
3294;BME280;1659;51.470;6.770;2023-10-09T00:36:04;101816.47;;;14.93;95.48
3294;BME280;1659;51.470;6.770;2023-10-09T00:38:36;101812.88;;;14.96;95.57
3294;BME280;1659;51.470;6.770;2023-10-09T00:41:05;101812.84;;;14.97;95.65
3294;BME280;1659;51.470;6.770;2023-10-09T00:43:37;101807.47;;;14.99;95.54
3294;BME280;1659;51.470;6.770;2023-10-09T00:46:08;101818.88;;;15.05;95.60
3294;BME280;1659;51.470;6.770;2023-10-09T00:48:43;101829.47;;;15.10;95.34
3294;BME280;1659;51.470;6.770;2023-10-09T00:51:13;101815.22;;;15.11;95.63
3294;BME280;1659;51.470;6.770;2023-10-09T00:53:44;101791.22;;;15.13;95.39
3294;BME280;1659;51.470;6.770;2023-10-09T00:56:14;101792.09;;;15.13;95.53
3294;BME280;1659;51.470;6.770;2023-10-09T00:58:46;101789.44;;;15.13;95.47
3294;BME280;1659;51.470;6.770;2023-10-09T01:01:14;101803.63;;;15.14;95.52
3294;BME280;1659;51.470;6.770;2023-10-09T01:03:43;101802.81;;;15.12;95.40
3294;BME280;1659;51.470;6.770;2023-10-09T01:06:11;101799.25;;;15.11;95.50
3294;BME280;1659;51.470;6.770;2023-10-09T01:08:46;101779.78;;;15.09;95.36
3294;BME280;1659;51.470;6.770;2023-10-09T01:11:34;101776.28;;;15.07;95.51
3294;BME280;1659;51.470;6.770;2023-10-09T01:14:12;101771.78;;;15.09;95.54
3294;BME280;1659;51.470;6.770;2023-10-09T01:16:39;101781.53;;;15.10;95.51
3294;BME280;1659;51.470;6.770;2023-10-09T01:19:09;101785.06;;;15.10;95.40
3294;BME280;1659;51.470;6.770;2023-10-09T01:21:49;101786.75;;;15.13;95.41
3294;BME280;1659;51.470;6.770;2023-10-09T01:24:17;101790.34;;;15.12;95.42
3294;BME280;1659;51.470;6.770;2023-10-09T01:26:45;101777.03;;;15.14;95.36
3294;BME280;1659;51.470;6.770;2023-10-09T01:29:14;101777.88;;;15.14;95.43
3294;BME280;1659;51.470;6.770;2023-10-09T01:31:42;101778.72;;;15.16;95.28
3294;BME280;1659;51.470;6.770;2023-10-09T01:34:17;101792.06;;;15.15;95.31
3294;BME280;1659;51.470;6.770;2023-10-09T01:36:44;101791.19;;;15.14;95.03
3294;BME280;1659;51.470;6.770;2023-10-09T01:39:14;101796.56;;;15.13;95.11
3294;BME280;1659;51.470;6.770;2023-10-09T01:41:50;101801.06;;;15.09;95.21
3294;BME280;1659;51.470;6.770;2023-10-09T01:44:23;101802.06;;;15.05;94.99
3294;BME280;1659;51.470;6.770;2023-10-09T01:46:51;101801.25;;;15.01;95.06
3294;BME280;1659;51.470;6.770;2023-10-09T01:49:20;101794.19;;;14.97;95.28
3294;BME280;1659;51.470;6.770;2023-10-09T01:51:55;101793.41;;;14.92;95.29
3294;BME280;1659;51.470;6.770;2023-10-09T01:54:25;101799.75;;;14.86;95.30
3294;BME280;1659;51.470;6.770;2023-10-09T01:57:03;101795.41;;;14.82;95.43
3294;BME280;1659;51.470;6.770;2023-10-09T01:59:35;101791.97;;;14.77;95.33
3294;BME280;1659;51.470;6.770;2023-10-09T02:02:04;101793.81;;;14.73;95.39
3294;BME280;1659;51.470;6.770;2023-10-09T02:04:40;101805.41;;;14.69;95.26
3294;BME280;1659;51.470;6.770;2023-10-09T02:07:07;101793.88;;;14.69;95.59
3294;BME280;1659;51.470;6.770;2023-10-09T02:09:34;101789.50;;;14.66;95.17
3294;BME280;1659;51.470;6.770;2023-10-09T02:12:01;101790.41;;;14.65;95.42
3294;BME280;1659;51.470;6.770;2023-10-09T02:14:29;101788.63;;;14.66;95.33
3294;BME280;1659;51.470;6.770;2023-10-09T02:16:55;101776.25;;;14.65;95.20
3294;BME280;1659;51.470;6.770;2023-10-09T02:19:43;101775.38;;;14.64;95.27
3294;BME280;1659;51.470;6.770;2023-10-09T02:22:13;101775.41;;;14.63;95.30
3294;BME280;1659;51.470;6.770;2023-10-09T02:24:41;101786.03;;;14.63;95.19
3294;BME280;1659;51.470;6.770;2023-10-09T02:27:15;101784.25;;;14.63;95.23
3294;BME280;1659;51.470;6.770;2023-10-09T02:30:05;101778.88;;;14.66;94.93
3294;BME280;1659;51.470;6.770;2023-10-09T02:32:41;101781.44;;;14.69;94.75
3294;BME280;1659;51.470;6.770;2023-10-09T02:35:09;101781.44;;;14.71;94.73
3294;BME280;1659;51.470;6.770;2023-10-09T02:37:44;101774.31;;;14.73;95.08
3294;BME280;1659;51.470;6.770;2023-10-09T02:40:12;101774.22;;;14.76;94.64
3294;BME280;1659;51.470;6.770;2023-10-09T02:42:48;101776.84;;;14.79;94.58
3294;BME280;1659;51.470;6.770;2023-10-09T02:45:17;101767.97;;;14.80;94.81
3294;BME280;1659;51.470;6.770;2023-10-09T02:47:44;101767.88;;;14.83;94.79
3294;BME280;1659;51.470;6.770;2023-10-09T02:50:14;101763.34;;;14.87;94.59
3294;BME280;1659;51.470;6.770;2023-10-09T02:52:46;101770.41;;;14.89;94.71
3294;BME280;1659;51.470;6.770;2023-10-09T02:55:17;101763.25;;;14.93;94.54
3294;BME280;1659;51.470;6.770;2023-10-09T02:57:52;101772.03;;;14.97;94.34
3294;BME280;1659;51.470;6.770;2023-10-09T03:00:31;101768.47;;;14.99;94.43
3294;BME280;1659;51.470;6.770;2023-10-09T03:03:02;101756.00;;;15.01;94.49
3294;BME280;1659;51.470;6.770;2023-10-09T03:05:31;101768.34;;;15.04;94.51
3294;BME280;1659;51.470;6.770;2023-10-09T03:07:58;101756.78;;;15.05;94.53
3294;BME280;1659;51.470;6.770;2023-10-09T03:10:25;101746.94;;;15.08;94.43
3294;BME280;1659;51.470;6.770;2023-10-09T03:12:52;101746.00;;;15.11;94.51
3294;BME280;1659;51.470;6.770;2023-10-09T03:15:19;101741.47;;;15.15;94.53
3294;BME280;1659;51.470;6.770;2023-10-09T03:17:48;101741.44;;;15.16;94.46
3294;BME280;1659;51.470;6.770;2023-10-09T03:20:15;101742.28;;;15.18;94.58
3294;BME280;1659;51.470;6.770;2023-10-09T03:22:43;101740.44;;;15.22;94.47
3294;BME280;1659;51.470;6.770;2023-10-09T03:25:10;101735.06;;;15.23;94.37
3294;BME280;1659;51.470;6.770;2023-10-09T03:27:42;101731.50;;;15.24;94.24
3294;BME280;1659;51.470;6.770;2023-10-09T03:30:12;101726.19;;;15.24;94.37
3294;BME280;1659;51.470;6.770;2023-10-09T03:32:43;101721.69;;;15.26;94.29
3294;BME280;1659;51.470;6.770;2023-10-09T03:35:11;101718.13;;;15.27;94.27
3294;BME280;1659;51.470;6.770;2023-10-09T03:37:42;101720.69;;;15.30;94.17
3294;BME280;1659;51.470;6.770;2023-10-09T03:40:10;101701.13;;;15.33;94.14
3294;BME280;1659;51.470;6.770;2023-10-09T03:42:43;101694.91;;;15.34;94.09
3294;BME280;1659;51.470;6.770;2023-10-09T03:45:10;101705.50;;;15.36;94.00
3294;BME280;1659;51.470;6.770;2023-10-09T03:47:43;101710.78;;;15.37;94.00
3294;BME280;1659;51.470;6.770;2023-10-09T03:50:13;101713.44;;;15.37;93.73
3294;BME280;1659;51.470;6.770;2023-10-09T03:52:52;101709.91;;;15.37;93.80
3294;BME280;1659;51.470;6.770;2023-10-09T03:55:20;101704.66;;;15.34;93.74
3294;BME280;1659;51.470;6.770;2023-10-09T03:57:53;101708.22;;;15.34;93.83
3294;BME280;1659;51.470;6.770;2023-10-09T04:00:20;101706.41;;;15.35;93.71
3294;BME280;1659;51.470;6.770;2023-10-09T04:02:54;101706.41;;;15.35;93.68
3294;BME280;1659;51.470;6.770;2023-10-09T04:05:22;101700.16;;;15.36;93.60
3294;BME280;1659;51.470;6.770;2023-10-09T04:07:48;101701.03;;;15.38;93.69
3294;BME280;1659;51.470;6.770;2023-10-09T04:10:18;101709.03;;;15.38;93.57
3294;BME280;1659;51.470;6.770;2023-10-09T04:13:08;101712.59;;;15.37;93.59
3294;BME280;1659;51.470;6.770;2023-10-09T04:15:42;101707.28;;;15.35;93.58
3294;BME280;1659;51.470;6.770;2023-10-09T04:18:08;101706.34;;;15.38;93.50
3294;BME280;1659;51.470;6.770;2023-10-09T04:20:42;101709.81;;;15.41;93.33
3294;BME280;1659;51.470;6.770;2023-10-09T04:23:37;101699.13;;;15.43;93.15
3294;BME280;1659;51.470;6.770;2023-10-09T04:26:24;101698.16;;;15.45;93.24
3294;BME280;1659;51.470;6.770;2023-10-09T04:28:50;101693.72;;;15.46;93.08
3294;BME280;1659;51.470;6.770;2023-10-09T04:31:19;101691.00;;;15.47;92.94
3294;BME280;1659;51.470;6.770;2023-10-09T04:33:47;101689.19;;;15.49;92.99
3294;BME280;1659;51.470;6.770;2023-10-09T04:36:41;101698.94;;;15.51;93.01
3294;BME280;1659;51.470;6.770;2023-10-09T04:39:15;101691.81;;;15.51;92.79
3294;BME280;1659;51.470;6.770;2023-10-09T04:41:56;101694.41;;;15.54;92.84
3294;BME280;1659;51.470;6.770;2023-10-09T04:44:45;101695.22;;;15.56;92.91
3294;BME280;1659;51.470;6.770;2023-10-09T04:47:43;101690.75;;;15.58;92.57
3294;BME280;1659;51.470;6.770;2023-10-09T04:50:23;101683.63;;;15.60;92.40
3294;BME280;1659;51.470;6.770;2023-10-09T04:53:09;101685.38;;;15.60;92.39
3294;BME280;1659;51.470;6.770;2023-10-09T04:55:48;101688.88;;;15.62;92.30
3294;BME280;1659;51.470;6.770;2023-10-09T04:58:23;101688.88;;;15.62;92.29
3294;BME280;1659;51.470;6.770;2023-10-09T05:00:51;101687.97;;;15.63;92.12
3294;BME280;1659;51.470;6.770;2023-10-09T05:03:30;101693.25;;;15.64;92.07
3294;BME280;1659;51.470;6.770;2023-10-09T05:06:09;101699.44;;;15.66;91.96
3294;BME280;1659;51.470;6.770;2023-10-09T05:08:48;101684.34;;;15.65;91.83
3294;BME280;1659;51.470;6.770;2023-10-09T05:11:15;101698.56;;;15.66;91.98
3294;BME280;1659;51.470;6.770;2023-10-09T05:13:59;101696.72;;;15.68;92.05
3294;BME280;1659;51.470;6.770;2023-10-09T05:16:37;101692.25;;;15.68;91.86
3294;BME280;1659;51.470;6.770;2023-10-09T05:19:17;101704.69;;;15.70;91.76
3294;BME280;1659;51.470;6.770;2023-10-09T05:21:59;101710.00;;;15.70;91.77
3294;BME280;1659;51.470;6.770;2023-10-09T05:24:34;101712.66;;;15.71;91.83
3294;BME280;1659;51.470;6.770;2023-10-09T05:27:09;101724.13;;;15.75;91.68
3294;BME280;1659;51.470;6.770;2023-10-09T05:29:43;101721.44;;;15.76;91.38
3294;BME280;1659;51.470;6.770;2023-10-09T05:32:24;101739.13;;;15.79;91.26
3294;BME280;1659;51.470;6.770;2023-10-09T05:34:55;101739.13;;;15.79;91.26
3294;BME280;1659;51.470;6.770;2023-10-09T05:37:35;101733.78;;;15.79;91.23
3294;BME280;1659;51.470;6.770;2023-10-09T05:40:10;101727.56;;;15.80;91.25
3294;BME280;1659;51.470;6.770;2023-10-09T05:42:47;101732.84;;;15.81;91.13
3294;BME280;1659;51.470;6.770;2023-10-09T05:45:23;101731.03;;;15.83;90.98
3294;BME280;1659;51.470;6.770;2023-10-09T05:48:07;101732.75;;;15.84;91.09
3294;BME280;1659;51.470;6.770;2023-10-09T05:50:56;101735.31;;;15.89;90.83
3294;BME280;1659;51.470;6.770;2023-10-09T05:54:05;101747.75;;;15.90;90.78
3294;BME280;1659;51.470;6.770;2023-10-09T05:56:55;101757.44;;;15.93;90.67
3294;BME280;1659;51.470;6.770;2023-10-09T05:59:36;101754.69;;;15.96;90.54
3294;BME280;1659;51.470;6.770;2023-10-09T06:02:20;101757.34;;;15.97;90.47
3294;BME280;1659;51.470;6.770;2023-10-09T06:05:12;101764.44;;;15.97;90.56
3294;BME280;1659;51.470;6.770;2023-10-09T06:07:53;101774.22;;;15.96;90.65
3294;BME280;1659;51.470;6.770;2023-10-09T06:10:32;101774.25;;;15.95;90.72
3294;BME280;1659;51.470;6.770;2023-10-09T06:13:06;101777.88;;;15.94;90.74
3294;BME280;1659;51.470;6.770;2023-10-09T06:15:37;101779.63;;;15.93;90.71
3294;BME280;1659;51.470;6.770;2023-10-09T06:18:34;101784.09;;;15.93;90.76
3294;BME280;1659;51.470;6.770;2023-10-09T06:21:00;101784.97;;;15.93;90.70
3294;BME280;1659;51.470;6.770;2023-10-09T06:23:55;101793.91;;;15.92;90.75
3294;BME280;1659;51.470;6.770;2023-10-09T06:26:35;101800.97;;;15.93;90.72
3294;BME280;1659;51.470;6.770;2023-10-09T06:29:03;101791.19;;;15.94;90.62
3294;BME280;1659;51.470;6.770;2023-10-09T06:31:56;101787.59;;;15.95;90.63
3294;BME280;1659;51.470;6.770;2023-10-09T06:34:30;101796.38;;;15.98;90.63
3294;BME280;1659;51.470;6.770;2023-10-09T06:37:00;101776.81;;;15.99;90.49
3294;BME280;1659;51.470;6.770;2023-10-09T06:39:34;101768.81;;;15.99;90.47
3294;BME280;1659;51.470;6.770;2023-10-09T06:42:18;101768.81;;;15.99;90.42
3294;BME280;1659;51.470;6.770;2023-10-09T06:45:01;101757.28;;;15.99;90.37
3294;BME280;1659;51.470;6.770;2023-10-09T06:47:29;101773.34;;;15.97;90.34
3294;BME280;1659;51.470;6.770;2023-10-09T06:50:02;101794.69;;;15.96;90.45
3294;BME280;1659;51.470;6.770;2023-10-09T06:52:45;101802.69;;;15.96;90.36
3294;BME280;1659;51.470;6.770;2023-10-09T06:55:44;101801.75;;;15.97;90.36
3294;BME280;1659;51.470;6.770;2023-10-09T06:58:17;101795.56;;;15.96;90.43
3294;BME280;1659;51.470;6.770;2023-10-09T07:00:52;101800.00;;;15.97;90.37
3294;BME280;1659;51.470;6.770;2023-10-09T07:03:45;101802.63;;;15.99;90.42
3294;BME280;1659;51.470;6.770;2023-10-09T07:06:25;101793.66;;;16.01;90.43
3294;BME280;1659;51.470;6.770;2023-10-09T07:09:14;101803.31;;;16.05;90.23
3294;BME280;1659;51.470;6.770;2023-10-09T07:11:46;101800.63;;;16.07;90.25
3294;BME280;1659;51.470;6.770;2023-10-09T07:14:35;101800.53;;;16.10;90.18
3294;BME280;1659;51.470;6.770;2023-10-09T07:17:20;101809.34;;;16.14;90.27
3294;BME280;1659;51.470;6.770;2023-10-09T07:20:09;101799.47;;;16.17;90.12
3294;BME280;1659;51.470;6.770;2023-10-09T07:22:39;101797.56;;;16.22;90.02
3294;BME280;1659;51.470;6.770;2023-10-09T07:25:22;101808.13;;;16.27;89.96
3294;BME280;1659;51.470;6.770;2023-10-09T07:28:07;101782.16;;;16.34;89.82
3294;BME280;1659;51.470;6.770;2023-10-09T07:30:44;101776.69;;;16.38;89.63
3294;BME280;1659;51.470;6.770;2023-10-09T07:33:13;101762.41;;;16.41;89.90
3294;BME280;1659;51.470;6.770;2023-10-09T07:35:56;101755.19;;;16.45;89.63
3294;BME280;1659;51.470;6.770;2023-10-09T07:38:25;101742.69;;;16.47;89.45
3294;BME280;1659;51.470;6.770;2023-10-09T07:40:55;101767.44;;;16.52;89.31
3294;BME280;1659;51.470;6.770;2023-10-09T07:43:28;101778.91;;;16.55;89.16
3294;BME280;1659;51.470;6.770;2023-10-09T07:46:02;101791.25;;;16.59;89.11
3294;BME280;1659;51.470;6.770;2023-10-09T07:48:47;101771.63;;;16.62;89.08
3294;BME280;1659;51.470;6.770;2023-10-09T07:51:18;101782.28;;;16.62;88.91
3294;BME280;1659;51.470;6.770;2023-10-09T07:53:49;101790.28;;;16.62;88.85
3294;BME280;1659;51.470;6.770;2023-10-09T07:56:22;101772.59;;;16.58;88.98
3294;BME280;1659;51.470;6.770;2023-10-09T07:58:49;101775.25;;;16.58;88.90
3294;BME280;1659;51.470;6.770;2023-10-09T08:01:17;101784.22;;;16.57;88.94
3294;BME280;1659;51.470;6.770;2023-10-09T08:03:50;101804.59;;;16.59;88.97
3294;BME280;1659;51.470;6.770;2023-10-09T08:06:27;101822.22;;;16.65;88.78
3294;BME280;1659;51.470;6.770;2023-10-09T08:09:11;101817.63;;;16.70;88.63
3294;BME280;1659;51.470;6.770;2023-10-09T08:11:53;101829.91;;;16.77;88.55
3294;BME280;1659;51.470;6.770;2023-10-09T08:14:36;101846.66;;;16.84;88.37
3294;BME280;1659;51.470;6.770;2023-10-09T08:17:13;101844.69;;;16.91;88.23
3294;BME280;1659;51.470;6.770;2023-10-09T08:19:46;101832.88;;;16.99;88.04
3294;BME280;1659;51.470;6.770;2023-10-09T08:22:27;101822.94;;;17.05;87.97
3294;BME280;1659;51.470;6.770;2023-10-09T08:25:09;101817.38;;;17.12;87.70
3294;BME280;1659;51.470;6.770;2023-10-09T08:27:52;101814.63;;;17.14;87.58
3294;BME280;1659;51.470;6.770;2023-10-09T08:30:23;101820.06;;;17.12;87.62
3294;BME280;1659;51.470;6.770;2023-10-09T08:33:06;101817.47;;;17.09;87.57
3294;BME280;1659;51.470;6.770;2023-10-09T08:35:48;101831.78;;;17.07;87.57
3294;BME280;1659;51.470;6.770;2023-10-09T08:38:17;101807.88;;;17.02;87.47
3294;BME280;1659;51.470;6.770;2023-10-09T08:40:49;101787.56;;;16.96;87.49
3294;BME280;1659;51.470;6.770;2023-10-09T08:43:17;101786.88;;;16.90;87.53
3294;BME280;1659;51.470;6.770;2023-10-09T08:45:45;101757.63;;;16.85;87.67
3294;BME280;1659;51.470;6.770;2023-10-09T08:48:13;101743.44;;;16.85;87.67
3294;BME280;1659;51.470;6.770;2023-10-09T08:50:43;101750.50;;;16.86;87.60
3294;BME280;1659;51.470;6.770;2023-10-09T08:53:12;101747.78;;;16.87;87.55
3294;BME280;1659;51.470;6.770;2023-10-09T08:55:39;101722.94;;;16.85;87.74
3294;BME280;1659;51.470;6.770;2023-10-09T08:58:07;101715.75;;;16.87;87.80
3294;BME280;1659;51.470;6.770;2023-10-09T09:00:44;101724.44;;;16.94;87.76
3294;BME280;1659;51.470;6.770;2023-10-09T09:03:11;101721.50;;;17.03;87.72
3294;BME280;1659;51.470;6.770;2023-10-09T09:05:39;101725.50;;;17.18;87.52
3294;BME280;1659;51.470;6.770;2023-10-09T09:08:25;101716.72;;;17.43;87.08
3294;BME280;1659;51.470;6.770;2023-10-09T09:10:57;101720.22;;;17.71;86.48
3294;BME280;1659;51.470;6.770;2023-10-09T09:13:37;101737.31;;;17.94;85.80
3294;BME280;1659;51.470;6.770;2023-10-09T09:16:16;101743.53;;;18.21;85.47
3294;BME280;1659;51.470;6.770;2023-10-09T09:18:53;101754.81;;;18.55;84.72
3294;BME280;1659;51.470;6.770;2023-10-09T09:21:47;101755.41;;;18.88;84.18
3294;BME280;1659;51.470;6.770;2023-10-09T09:24:17;101756.53;;;19.04;83.55
3294;BME280;1659;51.470;6.770;2023-10-09T09:26:53;101747.59;;;19.05;83.28
3294;BME280;1659;51.470;6.770;2023-10-09T09:29:38;101750.38;;;19.02;83.30
3294;BME280;1659;51.470;6.770;2023-10-09T09:32:06;101761.09;;;19.02;83.43
3294;BME280;1659;51.470;6.770;2023-10-09T09:34:43;101768.31;;;19.00;83.22
3294;BME280;1659;51.470;6.770;2023-10-09T09:37:18;101754.88;;;19.02;83.08
3294;BME280;1659;51.470;6.770;2023-10-09T09:39:47;101763.56;;;19.09;82.93
3294;BME280;1659;51.470;6.770;2023-10-09T09:42:18;101768.59;;;19.16;82.43
3294;BME280;1659;51.470;6.770;2023-10-09T09:44:51;101769.13;;;19.26;82.05
3294;BME280;1659;51.470;6.770;2023-10-09T09:47:18;101774.97;;;19.36;81.78
3294;BME280;1659;51.470;6.770;2023-10-09T09:49:52;101781.19;;;19.38;81.40
3294;BME280;1659;51.470;6.770;2023-10-09T09:52:26;101789.28;;;19.36;80.95
3294;BME280;1659;51.470;6.770;2023-10-09T09:54:54;101793.00;;;19.32;81.20
3294;BME280;1659;51.470;6.770;2023-10-09T09:57:23;101792.88;;;19.35;80.81
3294;BME280;1659;51.470;6.770;2023-10-09T09:59:52;101800.38;;;19.49;80.70
3294;BME280;1659;51.470;6.770;2023-10-09T10:02:27;101799.72;;;19.66;80.30
3294;BME280;1659;51.470;6.770;2023-10-09T10:04:59;101791.25;;;19.77;79.61
3294;BME280;1659;51.470;6.770;2023-10-09T10:07:31;101796.53;;;20.00;79.57
3294;BME280;1659;51.470;6.770;2023-10-09T10:10:35;101801.63;;;20.29;78.73
3294;BME280;1659;51.470;6.770;2023-10-09T10:13:04;101806.97;;;20.49;78.53
3294;BME280;1659;51.470;6.770;2023-10-09T10:15:59;101806.88;;;20.73;77.98
3294;BME280;1659;51.470;6.770;2023-10-09T10:18:52;101813.16;;;20.72;77.66
3294;BME280;1659;51.470;6.770;2023-10-09T10:21:19;101807.13;;;20.67;77.60
3294;BME280;1659;51.470;6.770;2023-10-09T10:23:58;101816.50;;;20.56;77.91
3294;BME280;1659;51.470;6.770;2023-10-09T10:26:33;101807.25;;;20.43;77.72
3294;BME280;1659;51.470;6.770;2023-10-09T10:29:16;101800.19;;;20.41;77.58
3294;BME280;1659;51.470;6.770;2023-10-09T10:31:55;101805.38;;;20.45;77.52
3294;BME280;1659;51.470;6.770;2023-10-09T10:34:24;101813.00;;;20.54;77.62
3294;BME280;1659;51.470;6.770;2023-10-09T10:36:51;101807.34;;;20.62;77.07
3294;BME280;1659;51.470;6.770;2023-10-09T10:39:24;101813.16;;;20.72;76.95
3294;BME280;1659;51.470;6.770;2023-10-09T10:42:09;101813.53;;;20.64;76.76
3294;BME280;1659;51.470;6.770;2023-10-09T10:44:40;101810.06;;;20.61;76.92
3294;BME280;1659;51.470;6.770;2023-10-09T10:47:10;101809.09;;;20.63;76.61
3294;BME280;1659;51.470;6.770;2023-10-09T10:49:55;101791.97;;;20.66;76.29
3294;BME280;1659;51.470;6.770;2023-10-09T10:52:25;101794.38;;;20.72;75.96
3294;BME280;1659;51.470;6.770;2023-10-09T10:55:09;101790.75;;;20.73;75.86
3294;BME280;1659;51.470;6.770;2023-10-09T10:58:16;101782.41;;;20.79;75.36
3294;BME280;1659;51.470;6.770;2023-10-09T11:00:52;101796.66;;;20.81;75.46
3294;BME280;1659;51.470;6.770;2023-10-09T11:03:37;101796.16;;;20.92;75.39
3294;BME280;1659;51.470;6.770;2023-10-09T11:06:27;101802.69;;;21.05;74.98
3294;BME280;1659;51.470;6.770;2023-10-09T11:09:10;101800.34;;;21.18;74.49
3294;BME280;1659;51.470;6.770;2023-10-09T11:11:47;101801.28;;;21.36;74.21
3294;BME280;1659;51.470;6.770;2023-10-09T11:14:15;101807.59;;;21.54;73.53
3294;BME280;1659;51.470;6.770;2023-10-09T11:16:42;101796.03;;;21.71;72.96
3294;BME280;1659;51.470;6.770;2023-10-09T11:19:13;101803.63;;;21.80;72.64
3294;BME280;1659;51.470;6.770;2023-10-09T11:21:54;101794.31;;;21.87;72.61
3294;BME280;1659;51.470;6.770;2023-10-09T11:24:46;101791.63;;;21.87;72.54
3294;BME280;1659;51.470;6.770;2023-10-09T11:27:25;101790.69;;;21.88;72.55
3294;BME280;1659;51.470;6.770;2023-10-09T11:29:59;101793.22;;;21.92;72.10
3294;BME280;1659;51.470;6.770;2023-10-09T11:32:46;101798.63;;;22.09;72.08
3294;BME280;1659;51.470;6.770;2023-10-09T11:35:15;101799.56;;;22.08;71.67
3294;BME280;1659;51.470;6.770;2023-10-09T11:37:55;101792.53;;;22.05;71.54
3294;BME280;1659;51.470;6.770;2023-10-09T11:40:28;101795.03;;;22.09;71.19
3294;BME280;1659;51.470;6.770;2023-10-09T11:43:00;101793.47;;;22.22;70.94
3294;BME280;1659;51.470;6.770;2023-10-09T11:45:30;101785.13;;;22.46;70.64
3294;BME280;1659;51.470;6.770;2023-10-09T11:48:16;101783.97;;;22.67;69.82
3294;BME280;1659;51.470;6.770;2023-10-09T11:50:47;101793.03;;;22.82;69.89
3294;BME280;1659;51.470;6.770;2023-10-09T11:53:19;101784.25;;;22.78;69.23
3294;BME280;1659;51.470;6.770;2023-10-09T11:55:59;101779.44;;;22.68;69.22
3294;BME280;1659;51.470;6.770;2023-10-09T11:58:26;101777.78;;;22.65;68.90
3294;BME280;1659;51.470;6.770;2023-10-09T12:00:54;101777.31;;;22.57;68.65
3294;BME280;1659;51.470;6.770;2023-10-09T12:03:25;101770.91;;;22.59;68.80
3294;BME280;1659;51.470;6.770;2023-10-09T12:05:54;101776.03;;;22.64;68.85
3294;BME280;1659;51.470;6.770;2023-10-09T12:08:22;101775.25;;;22.62;68.76
3294;BME280;1659;51.470;6.770;2023-10-09T12:10:52;101775.41;;;22.59;68.91
3294;BME280;1659;51.470;6.770;2023-10-09T12:13:20;101780.03;;;22.39;68.45
3294;BME280;1659;51.470;6.770;2023-10-09T12:15:47;101770.69;;;22.29;68.45
3294;BME280;1659;51.470;6.770;2023-10-09T12:18:15;101776.09;;;22.29;68.59
3294;BME280;1659;51.470;6.770;2023-10-09T12:20:43;101770.81;;;22.26;68.63
3294;BME280;1659;51.470;6.770;2023-10-09T12:23:16;101765.69;;;22.21;68.70
3294;BME280;1659;51.470;6.770;2023-10-09T12:25:43;101771.94;;;22.22;68.42
3294;BME280;1659;51.470;6.770;2023-10-09T12:28:11;101772.97;;;22.19;68.68
3294;BME280;1659;51.470;6.770;2023-10-09T12:30:38;101774.06;;;22.15;68.71
3294;BME280;1659;51.470;6.770;2023-10-09T12:33:05;101775.69;;;22.19;68.58
3294;BME280;1659;51.470;6.770;2023-10-09T12:35:37;101777.91;;;22.29;68.34
3294;BME280;1659;51.470;6.770;2023-10-09T12:38:04;101781.09;;;22.37;68.34
3294;BME280;1659;51.470;6.770;2023-10-09T12:40:34;101779.09;;;22.40;68.36
3294;BME280;1659;51.470;6.770;2023-10-09T12:43:01;101779.03;;;22.42;68.12
3294;BME280;1659;51.470;6.770;2023-10-09T12:45:28;101781.31;;;22.50;68.06
3294;BME280;1659;51.470;6.770;2023-10-09T12:47:58;101783.91;;;22.51;67.96
3294;BME280;1659;51.470;6.770;2023-10-09T12:50:25;101770.94;;;22.42;67.79
3294;BME280;1659;51.470;6.770;2023-10-09T12:52:55;101771.81;;;22.42;67.62
3294;BME280;1659;51.470;6.770;2023-10-09T12:55:22;101768.00;;;22.47;67.59
3294;BME280;1659;51.470;6.770;2023-10-09T12:57:57;101764.47;;;22.62;67.48
3294;BME280;1659;51.470;6.770;2023-10-09T13:00:26;101776.78;;;22.84;66.93
3294;BME280;1659;51.470;6.770;2023-10-09T13:02:57;101774.31;;;22.96;66.71
3294;BME280;1659;51.470;6.770;2023-10-09T13:05:26;101775.16;;;22.97;66.58
3294;BME280;1659;51.470;6.770;2023-10-09T13:07:54;101780.25;;;23.03;66.46
3294;BME280;1659;51.470;6.770;2023-10-09T13:10:23;101773.38;;;23.13;65.99
3294;BME280;1659;51.470;6.770;2023-10-09T13:12:50;101765.41;;;23.28;66.04
3294;BME280;1659;51.470;6.770;2023-10-09T13:15:21;101764.97;;;23.35;65.53
3294;BME280;1659;51.470;6.770;2023-10-09T13:17:47;101767.75;;;23.34;65.35
3294;BME280;1659;51.470;6.770;2023-10-09T13:20:14;101771.38;;;23.17;65.46
3294;BME280;1659;51.470;6.770;2023-10-09T13:22:42;101766.59;;;23.06;65.64
3294;BME280;1659;51.470;6.770;2023-10-09T13:25:10;101770.69;;;23.13;65.58
3294;BME280;1659;51.470;6.770;2023-10-09T13:27:41;101767.59;;;23.21;65.34
3294;BME280;1659;51.470;6.770;2023-10-09T13:30:15;101766.81;;;23.19;65.42
3294;BME280;1659;51.470;6.770;2023-10-09T13:32:47;101763.28;;;23.17;65.13
3294;BME280;1659;51.470;6.770;2023-10-09T13:35:15;101767.28;;;23.10;65.11
3294;BME280;1659;51.470;6.770;2023-10-09T13:37:44;101771.13;;;23.06;65.28
3294;BME280;1659;51.470;6.770;2023-10-09T13:40:21;101766.13;;;22.98;65.28
3294;BME280;1659;51.470;6.770;2023-10-09T13:42:54;101770.56;;;22.99;65.47
3294;BME280;1659;51.470;6.770;2023-10-09T13:45:25;101772.75;;;23.08;65.00
3294;BME280;1659;51.470;6.770;2023-10-09T13:47:53;101761.13;;;23.08;65.16